Time;durP1;ratioP1;P1;durP2;ratioP2;P2;SDS_P1;SDS_P2;PMS_P1;PMS_P2;Temp;Humidity;BMP_temperature;BMP_pressure;BME280_temperature;BME280_humidity;BME280_pressure;Samples;Min_cycle;Max_cycle;Signal;HPM_P1;HPM_P2
2022/05/08 00:00:32;;;;;;;9.43;9.03;;;;;;;9.94;63.12;93262.56;5072156;28;20189;-79
2022/05/08 00:02:58;;;;;;;10.53;9.73;;;;;;;9.87;62.98;93250.81;5046667;28;20237;-79
2022/05/08 00:05:27;;;;;;;9.87;9.33;;;;;;;9.82;63.22;93249.00;5054699;28;20986;-78
2022/05/08 00:07:53;;;;;;;10.73;9.53;;;;;;;9.77;63.39;93251.56;5069462;28;20221;-79
2022/05/08 00:10:19;;;;;;;9.23;8.83;;;;;;;9.64;62.96;93237.22;5070592;28;20185;-79
2022/05/08 00:12:44;;;;;;;9.93;9.37;;;;;;;9.53;62.71;93224.38;5062088;28;20224;-79
2022/05/08 00:15:10;;;;;;;9.50;9.00;;;;;;;9.28;63.23;93198.25;5061116;28;20245;-79
2022/05/08 00:17:36;;;;;;;10.20;9.73;;;;;;;9.27;64.26;93199.31;5063569;28;20224;-79
2022/05/08 00:20:04;;;;;;;10.77;10.20;;;;;;;9.51;64.77;93237.69;5073330;28;20241;-79
2022/05/08 00:22:30;;;;;;;10.10;9.70;;;;;;;9.39;65.60;93221.50;5070403;28;20226;-79
2022/05/08 00:24:55;;;;;;;10.20;9.60;;;;;;;9.30;66.33;93240.47;5071411;28;20961;-77
2022/05/08 00:27:21;;;;;;;10.50;9.83;;;;;;;9.21;66.88;93247.97;5074303;28;20225;-79
2022/05/08 00:29:47;;;;;;;9.97;9.37;;;;;;;9.09;67.75;93249.25;5070164;28;20190;-79
2022/05/08 00:32:12;;;;;;;10.10;9.37;;;;;;;8.99;68.40;93238.78;5056713;28;20370;-79
2022/05/08 00:34:38;;;;;;;10.80;10.20;;;;;;;8.90;69.14;93245.50;5068840;28;20636;-79
2022/05/08 00:37:04;;;;;;;9.83;9.43;;;;;;;8.83;68.91;93237.13;5073623;28;20232;-79
2022/05/08 00:39:29;;;;;;;10.57;9.97;;;;;;;8.80;69.03;93248.03;5071787;28;20185;-79
2022/05/08 00:41:55;;;;;;;10.60;10.10;;;;;;;8.86;68.02;93244.41;5071885;28;20239;-80
2022/05/08 00:44:20;;;;;;;10.17;9.47;;;;;;;8.68;67.87;93227.41;5074079;28;20214;-79
2022/05/08 00:46:48;;;;;;;10.60;10.00;;;;;;;8.72;68.07;93236.28;5071120;28;20263;-78
2022/05/08 00:49:14;;;;;;;10.70;10.10;;;;;;;8.65;69.15;93250.56;5071923;28;20208;-79
2022/05/08 00:51:40;;;;;;;10.60;10.07;;;;;;;8.59;69.63;93254.16;5068668;28;20230;-79
2022/05/08 00:54:05;;;;;;;9.30;8.90;;;;;;;8.66;69.22;93249.50;5070948;28;20738;-79
2022/05/08 00:56:31;;;;;;;10.43;9.80;;;;;;;8.79;69.15;93243.88;5072284;28;20232;-79
2022/05/08 00:58:56;;;;;;;9.87;9.13;;;;;;;8.66;69.08;93252.91;5061728;28;20185;-79
2022/05/08 01:01:22;;;;;;;9.97;9.37;;;;;;;8.60;68.87;93234.91;5062725;28;20222;-79
2022/05/08 01:03:48;;;;;;;11.03;10.43;;;;;;;8.65;69.33;93242.75;5051484;28;20201;-79
2022/05/08 01:06:16;;;;;;;10.50;9.77;;;;;;;8.54;68.62;93235.91;5053024;28;20237;-78
2022/05/08 01:08:45;;;;;;;9.93;9.43;;;;;;;8.67;68.73;93243.28;5047380;28;20210;-78
2022/05/08 01:11:11;;;;;;;10.47;9.73;;;;;;;8.62;68.92;93240.63;5037854;28;20217;-78
2022/05/08 01:13:38;;;;;;;10.10;9.20;;;;;;;8.56;69.38;93242.41;5052995;28;20249;-79
2022/05/08 01:16:08;;;;;;;10.57;9.87;;;;;;;8.60;68.86;93242.69;5050400;28;20233;-77
2022/05/08 01:18:34;;;;;;;9.10;8.67;;;;;;;8.41;70.42;93238.91;5065283;28;20229;-79
2022/05/08 01:20:59;;;;;;;10.50;9.83;;;;;;;8.38;70.64;93242.03;5069840;28;20221;-78
2022/05/08 01:23:24;;;;;;;10.77;10.07;;;;;;;8.36;70.83;93236.31;5071730;28;20257;-78
2022/05/08 01:25:56;;;;;;;11.60;10.73;;;;;;;8.32;70.61;93235.22;5070195;28;20209;-78
2022/05/08 01:28:23;;;;;;;10.50;9.80;;;;;;;8.25;70.43;93221.66;5055076;28;20281;-78
2022/05/08 01:30:52;;;;;;;9.83;9.13;;;;;;;8.27;71.00;93235.16;5068383;28;20197;-78
2022/05/08 01:33:18;;;;;;;10.00;9.40;;;;;;;8.38;70.64;93236.81;5071102;28;20233;-78
2022/05/08 01:35:44;;;;;;;10.90;10.20;;;;;;;8.30;70.86;93230.25;5069906;28;20181;-77
2022/05/08 01:38:12;;;;;;;10.23;9.50;;;;;;;8.29;70.53;93230.50;5071953;28;20205;-78
2022/05/08 01:40:38;;;;;;;9.63;9.13;;;;;;;8.15;70.68;93220.50;5069898;28;20197;-78
2022/05/08 01:43:03;;;;;;;10.57;9.87;;;;;;;8.26;70.61;93228.41;5071194;28;20181;-78
2022/05/08 01:45:30;;;;;;;10.50;9.90;;;;;;;8.00;71.06;93207.38;5074020;28;20185;-78
2022/05/08 01:50:40;;;;;;;11.77;10.97;;;;;;;8.07;70.98;93215.78;5063001;28;20196;-77
2022/05/08 01:53:05;;;;;;;11.17;10.47;;;;;;;8.16;71.50;93226.47;5071413;28;20204;-79
2022/05/08 01:55:31;;;;;;;11.60;10.73;;;;;;;8.04;71.00;93203.25;5073874;28;20189;-79
2022/05/08 01:57:57;;;;;;;11.27;10.40;;;;;;;7.96;71.13;93214.13;5069110;28;20228;-79
2022/05/08 02:00:23;;;;;;;10.27;9.53;;;;;;;7.77;71.28;93186.91;5057452;28;20177;-79
2022/05/08 02:02:49;;;;;;;11.67;11.00;;;;;;;7.99;71.41;93208.41;5073496;28;20224;-84
2022/05/08 02:05:16;;;;;;;11.13;10.53;;;;;;;7.81;71.65;93223.59;5061653;28;20195;-83
2022/05/08 02:07:47;;;;;;;10.43;9.83;;;;;;;7.72;72.70;93228.44;5066003;28;20281;-84
2022/05/08 02:10:13;;;;;;;11.23;10.23;;;;;;;7.72;72.45;93223.25;5071586;28;20449;-83
2022/05/08 02:12:39;;;;;;;10.73;10.07;;;;;;;7.52;72.74;93206.66;5069643;28;20229;-83
2022/05/08 02:15:07;;;;;;;9.77;9.07;;;;;;;7.53;73.15;93206.41;5064232;28;20186;-84
2022/05/08 02:17:32;;;;;;;10.07;9.47;;;;;;;7.78;72.38;93221.50;5072017;28;20237;-84
2022/05/08 02:19:58;;;;;;;9.73;9.13;;;;;;;7.58;72.84;93198.69;5071466;28;20244;-83
2022/05/08 02:22:23;;;;;;;11.37;10.67;;;;;;;7.43;73.05;93201.13;5062779;28;20252;-83
2022/05/08 02:24:49;;;;;;;10.27;9.60;;;;;;;7.50;73.20;93214.69;5059624;28;20240;-82
2022/05/08 02:27:15;;;;;;;11.00;10.20;;;;;;;7.64;72.54;93205.50;5067750;28;20229;-83
2022/05/08 02:29:41;;;;;;;10.27;9.43;;;;;;;7.43;73.83;93214.13;5059516;28;20248;-83
2022/05/08 02:32:07;;;;;;;11.63;10.83;;;;;;;7.31;74.83;93205.69;5068737;28;20317;-83
2022/05/08 02:34:32;;;;;;;10.53;9.93;;;;;;;7.24;74.38;93205.09;5068906;28;20220;-83
2022/05/08 02:36:57;;;;;;;10.60;9.87;;;;;;;7.30;74.63;93222.28;5056626;28;20230;-83
2022/05/08 02:39:23;;;;;;;10.90;10.13;;;;;;;7.38;73.91;93219.25;5049597;28;20190;-83
2022/05/08 02:41:50;;;;;;;9.80;9.27;;;;;;;7.40;74.12;93221.63;5059336;28;20229;-87
2022/05/08 02:44:16;;;;;;;11.53;10.83;;;;;;;7.38;74.14;93219.25;5069281;28;20188;-82
2022/05/08 02:46:42;;;;;;;10.03;9.00;;;;;;;7.49;73.49;93220.94;5069748;28;20274;-83
2022/05/08 02:49:07;;;;;;;9.83;9.33;;;;;;;7.36;74.42;93216.13;5063113;28;20220;-83
2022/05/08 02:51:33;;;;;;;10.93;10.07;;;;;;;7.37;74.59;93219.50;5069135;28;20229;-83
2022/05/08 02:53:58;;;;;;;9.57;8.97;;;;;;;7.38;74.19;93211.47;5072233;28;20623;-83
2022/05/08 02:59:10;;;;;;;9.97;9.47;;;;;;;7.27;75.20;93214.97;5058830;28;20184;-83
2022/05/08 03:01:36;;;;;;;9.20;8.60;;;;;;;7.23;74.74;93208.72;5060533;28;20308;-81
2022/05/08 03:04:01;;;;;;;10.00;9.27;;;;;;;7.35;74.75;93222.34;5050140;28;20186;-83
2022/05/08 03:06:26;;;;;;;9.87;9.17;;;;;;;7.36;74.38;93208.31;5055975;28;20225;-83
2022/05/08 03:08:52;;;;;;;10.37;9.47;;;;;;;7.31;75.05;93226.47;5087038;28;20192;-83
2022/05/08 03:11:27;;;;;;;9.53;8.93;;;;;;;7.30;75.12;93224.13;5068474;28;20226;-83
2022/05/08 03:13:59;;;;;;;9.57;9.07;;;;;;;6.99;75.07;93178.84;5071552;28;20219;-83
2022/05/08 03:16:28;;;;;;;9.57;9.07;;;;;;;7.28;75.37;93224.38;5069241;28;20225;-83
2022/05/08 03:18:55;;;;;;;9.83;9.13;;;;;;;7.29;75.14;93212.94;5068560;28;20181;-82
2022/05/08 03:21:21;;;;;;;10.40;9.83;;;;;;;7.27;75.16;93227.19;5068270;28;20251;-83
2022/05/08 03:23:47;;;;;;;11.10;10.40;;;;;;;7.50;74.45;93224.31;5073506;28;20272;-83
2022/05/08 03:26:14;;;;;;;9.67;9.07;;;;;;;7.55;74.23;93206.16;5070144;28;20233;-83
2022/05/08 03:28:40;;;;;;;9.37;8.87;;;;;;;8.04;72.50;93231.06;5082238;28;20264;-83
2022/05/08 03:31:06;;;;;;;10.33;9.53;;;;;;;8.24;71.56;93220.84;5075642;28;20263;-83
2022/05/08 03:33:33;;;;;;;10.67;9.90;;;;;;;8.46;70.92;93237.16;5072254;28;20233;-83
2022/05/08 03:35:59;;;;;;;11.60;10.40;;;;;;;8.30;71.18;93221.66;5067820;28;20235;-83
2022/05/08 03:38:25;;;;;;;13.80;9.90;;;;;;;8.39;70.98;93228.75;5073253;28;20205;-83
2022/05/08 03:40:51;;;;;;;12.27;11.03;;;;;;;8.33;71.23;93229.75;5066905;28;20190;-81
2022/05/08 03:43:17;;;;;;;10.40;9.57;;;;;;;8.14;72.08;93237.13;5072471;28;20180;-83
2022/05/08 03:45:43;;;;;;;11.37;10.67;;;;;;;8.25;71.68;93232.06;5072105;28;20220;-82
2022/05/08 03:48:09;;;;;;;9.13;8.63;;;;;;;8.48;71.41;93245.50;5065656;28;20195;-83
2022/05/08 03:50:35;;;;;;;11.10;10.07;;;;;;;8.60;70.92;93245.31;5068895;28;20233;-82
2022/05/08 03:53:04;;;;;;;10.07;9.47;;;;;;;8.69;70.49;93254.22;5052296;28;20228;-83
2022/05/08 03:55:29;;;;;;;10.37;9.67;;;;;;;8.57;71.87;93251.00;5048956;28;21171;-83
2022/05/08 03:57:55;;;;;;;9.87;9.27;;;;;;;8.59;71.01;93248.94;5056661;28;20236;-81
2022/05/08 04:00:20;;;;;;;10.37;9.63;;;;;;;8.87;69.48;93232.97;5073238;28;20182;-82
2022/05/08 04:02:46;;;;;;;10.43;9.53;;;;;;;9.34;67.52;93246.72;5067272;28;20237;-84
2022/05/08 04:05:12;;;;;;;10.60;10.00;;;;;;;9.05;68.26;93224.72;5066895;28;20245;-83
2022/05/08 04:07:38;;;;;;;11.93;10.80;;;;;;;9.01;67.91;93241.91;5085916;28;20232;-80
2022/05/08 04:10:04;;;;;;;10.37;9.50;;;;;;;9.07;67.30;93231.28;5076871;28;20185;-83
2022/05/08 04:12:29;;;;;;;10.20;9.37;;;;;;;9.16;68.04;93244.59;5053605;28;20225;-83
2022/05/08 04:14:55;;;;;;;11.27;10.47;;;;;;;9.14;67.46;93241.44;5055585;28;20213;-84
2022/05/08 04:17:20;;;;;;;9.90;9.30;;;;;;;9.39;66.38;93244.94;5054897;28;20217;-83
2022/05/08 04:19:49;;;;;;;9.33;8.73;;;;;;;9.35;65.83;93237.91;5053136;28;20194;-83
2022/05/08 04:24:58;;;;;;;9.40;8.83;;;;;;;9.59;64.46;93249.44;5065007;28;20195;-83
2022/05/08 04:27:24;;;;;;;10.80;10.10;;;;;;;9.61;64.70;93252.56;5069765;28;20233;-82
2022/05/08 04:29:49;;;;;;;10.33;9.47;;;;;;;9.41;65.30;93247.28;5071136;28;20193;-82
2022/05/08 04:32:15;;;;;;;10.23;9.60;;;;;;;9.51;65.31;93242.09;5077440;28;20236;-83
2022/05/08 04:34:41;;;;;;;10.27;9.67;;;;;;;9.67;64.02;93267.19;5083519;28;20276;-84
2022/05/08 04:37:06;;;;;;;10.77;10.17;;;;;;;9.54;63.93;93242.38;5065512;28;20226;-76
2022/05/08 04:39:31;;;;;;;9.67;9.07;;;;;;;9.60;63.39;93251.00;5072062;28;20181;-80
2022/05/08 04:41:57;;;;;;;9.30;8.60;;;;;;;9.62;63.81;93259.34;5072042;28;21614;-80
2022/05/08 04:44:22;;;;;;;10.10;9.50;;;;;;;10.00;62.21;93261.53;5074030;28;20220;-80
2022/05/08 04:46:48;;;;;;;11.27;10.47;;;;;;;9.93;62.61;93260.22;5071942;28;20294;-79
2022/05/08 04:49:14;;;;;;;9.90;9.27;;;;;;;10.07;61.36;93256.84;5071160;28;20191;-79
2022/05/08 04:51:39;;;;;;;10.30;9.70;;;;;;;10.37;60.17;93272.56;5067442;28;20232;-77
2022/05/08 04:54:05;;;;;;;10.23;9.27;;;;;;;10.35;59.85;93268.66;5070062;28;20225;-79
2022/05/08 04:56:31;;;;;;;9.53;9.03;;;;;;;10.33;60.23;93268.91;5072089;28;20273;-79
2022/05/08 04:58:56;;;;;;;10.03;9.40;;;;;;;10.10;60.98;93269.38;5065229;28;20189;-80
2022/05/08 05:01:22;;;;;;;9.33;8.93;;;;;;;10.10;59.72;93243.28;5070724;28;20217;-79
2022/05/08 05:03:49;;;;;;;9.50;9.10;;;;;;;9.96;59.60;93276.13;5072538;28;20273;-79
2022/05/08 05:06:14;;;;;;;10.73;9.97;;;;;;;10.20;59.12;93251.16;5071444;28;20221;-81
2022/05/08 05:08:39;;;;;;;10.87;10.03;;;;;;;11.07;55.56;93267.28;5067299;28;20261;-82
2022/05/08 05:11:09;;;;;;;10.00;9.50;;;;;;;11.50;53.84;93284.16;5068798;28;20766;-79
2022/05/08 05:13:36;;;;;;;10.43;9.77;;;;;;;11.78;53.97;93283.50;5072432;28;20213;-79
2022/05/08 05:16:01;;;;;;;9.80;9.20;;;;;;;12.43;52.13;93288.38;5064342;28;20229;-78
2022/05/08 05:18:27;;;;;;;9.27;8.57;;;;;;;13.00;50.08;93290.31;5068688;28;20190;-79
2022/05/08 05:20:52;;;;;;;9.70;9.10;;;;;;;12.41;51.35;93294.94;5071636;28;20215;-78
2022/05/08 05:23:18;;;;;;;11.03;10.27;;;;;;;12.87;51.37;93275.97;5069954;28;20192;-79
2022/05/08 05:25:46;;;;;;;9.70;9.20;;;;;;;13.72;47.73;93282.22;5072329;28;20180;-79
2022/05/08 05:28:11;;;;;;;9.57;8.97;;;;;;;13.88;46.82;93294.06;5057282;28;20253;-78
2022/05/08 05:30:36;;;;;;;9.90;9.20;;;;;;;13.35;48.17;93297.06;5068284;28;20182;-79
2022/05/08 05:33:02;;;;;;;10.83;10.30;;;;;;;13.48;48.79;93286.66;5057209;28;20240;-78
2022/05/08 05:35:27;;;;;;;9.50;9.00;;;;;;;16.87;40.41;93272.38;5070983;28;20195;-75
2022/05/08 05:37:53;;;;;;;9.23;8.73;;;;;;;19.64;34.88;93292.38;5068786;28;20296;-75
2022/05/08 05:40:20;;;;;;;10.03;9.53;;;;;;;21.06;31.64;93292.19;5067867;28;20179;-78
2022/05/08 05:42:46;;;;;;;10.37;9.67;;;;;;;24.08;28.08;93301.34;5069911;28;20225;-74
2022/05/08 05:45:11;;;;;;;10.23;9.57;;;;;;;20.89;31.13;93291.53;5067433;28;20220;-75
2022/05/08 05:48:00;;;;;;;9.43;8.93;;;;;;;26.70;24.24;93309.63;5067443;28;20212;-76
2022/05/08 05:50:24;;;;;;;8.65;8.15;;;;;;;28.52;21.50;93304.78;5067450;28;20199;-76
2022/05/08 05:52:51;;;;;;;8.93;8.30;;;;;;;28.15;21.70;93312.91;5066928;28;20228;-76
2022/05/08 05:55:18;;;;;;;8.75;8.05;;;;;;;29.40;20.40;93306.88;5072399;28;20200;-75
2022/05/08 05:57:43;;;;;;;8.32;7.82;;;;;;;28.65;20.28;93312.22;5071089;28;20223;-76
2022/05/08 06:00:12;;;;;;;9.10;8.52;;;;;;;25.21;23.55;93302.00;5069522;28;20257;-76
2022/05/08 06:02:40;;;;;;;8.40;7.70;;;;;;;27.09;22.07;93310.16;5068258;28;20225;-76
2022/05/08 06:05:09;;;;;;;8.27;7.82;;;;;;;27.54;21.67;93301.91;5069523;28;20203;-76
2022/05/08 06:07:36;;;;;;;7.93;7.45;;;;;;;26.84;22.29;93303.69;5070377;28;20292;-75
2022/05/08 06:10:03;;;;;;;8.38;7.80;;;;;;;29.79;19.22;93312.44;5067519;28;20193;-76
2022/05/08 06:12:29;;;;;;;7.63;7.13;;;;;;;30.01;18.44;93315.94;5066930;28;20933;-75
2022/05/08 06:14:54;;;;;;;7.97;7.47;;;;;;;30.19;17.57;93316.72;5067316;28;20209;-75
2022/05/08 06:17:20;;;;;;;6.97;6.57;;;;;;;29.92;17.69;93277.84;5058550;28;20339;-76
2022/05/08 06:19:45;;;;;;;7.72;7.22;;;;;;;31.19;16.68;93317.13;5068650;28;20196;-76
2022/05/08 06:22:11;;;;;;;8.23;7.65;;;;;;;28.80;18.28;93303.09;5066282;28;20233;-75
2022/05/08 06:24:38;;;;;;;8.30;7.60;;;;;;;26.42;20.13;93298.47;5065143;28;20225;-75
2022/05/08 06:27:04;;;;;;;8.45;7.93;;;;;;;21.38;26.84;93285.31;5066978;28;20803;-78
2022/05/08 06:29:30;;;;;;;8.00;7.60;;;;;;;18.54;33.01;93272.88;5061995;28;20261;-76
2022/05/08 06:31:56;;;;;;;9.23;8.73;;;;;;;16.95;35.52;93282.19;5092614;28;20237;-75
2022/05/08 06:34:21;;;;;;;9.03;8.43;;;;;;;16.95;35.73;93274.28;5067820;28;20282;-75
2022/05/08 06:36:47;;;;;;;9.27;8.53;;;;;;;16.31;36.78;93274.69;5069875;28;20288;-75
2022/05/08 06:39:13;;;;;;;10.10;9.30;;;;;;;15.43;37.96;93272.53;5066083;28;20221;-75
2022/05/08 06:41:39;;;;;;;9.30;8.70;;;;;;;14.68;40.10;93258.03;5071170;28;20221;-77
2022/05/08 06:44:05;;;;;;;11.70;10.80;;;;;;;14.72;41.06;93276.66;5068258;28;20196;-75
2022/05/08 06:46:32;;;;;;;10.67;9.80;;;;;;;14.65;40.65;93263.06;5055221;28;20226;-77
2022/05/08 06:49:01;;;;;;;10.37;9.67;;;;;;;14.39;42.11;93266.09;5048263;28;20192;-76
2022/05/08 06:51:26;;;;;;;9.13;8.57;;;;;;;14.36;42.34;93266.69;5054565;28;20220;-77
2022/05/08 06:53:52;;;;;;;10.37;9.77;;;;;;;14.61;41.66;93259.47;5063669;28;20698;-76
2022/05/08 06:56:17;;;;;;;10.83;10.17;;;;;;;14.33;42.67;93261.97;5067266;28;20951;-77
2022/05/08 07:01:41;;;;;;;10.50;9.57;;;;;;;14.26;41.63;93250.25;5071573;28;20258;-85
2022/05/08 07:04:08;;;;;;;10.90;10.03;;;;;;;13.72;44.46;93261.22;5064981;28;20173;-82
2022/05/08 07:06:35;;;;;;;10.47;9.80;;;;;;;14.25;42.75;93260.00;5060592;28;20225;-82
2022/05/08 07:09:01;;;;;;;10.13;9.53;;;;;;;14.12;43.75;93250.19;5052667;28;20187;-81
2022/05/08 07:11:26;;;;;;;9.60;9.07;;;;;;;14.08;44.14;93266.78;5051782;28;20255;-79
2022/05/08 07:13:52;;;;;;;10.20;9.53;;;;;;;13.60;46.33;93270.53;5050103;28;20253;-80
2022/05/08 07:16:18;;;;;;;10.13;9.53;;;;;;;13.92;46.33;93270.66;5048555;28;20233;-78
2022/05/08 07:18:43;;;;;;;10.47;9.77;;;;;;;14.36;44.97;93274.56;5053633;28;20197;-76
2022/05/08 07:21:09;;;;;;;10.43;9.63;;;;;;;13.45;45.24;93274.13;5054602;28;20237;-79
2022/05/08 07:23:34;;;;;;;9.67;9.03;;;;;;;14.49;44.44;93260.69;5046916;28;20212;-77
2022/05/08 07:25:59;;;;;;;9.57;8.97;;;;;;;14.82;42.45;93268.59;5051843;28;20237;-76
2022/05/08 07:28:25;;;;;;;8.93;8.43;;;;;;;14.51;43.25;93257.78;5047102;28;20233;-79
2022/05/08 07:30:51;;;;;;;10.67;9.90;;;;;;;15.08;43.39;93256.59;5049902;28;20202;-79
2022/05/08 07:33:16;;;;;;;9.87;9.03;;;;;;;14.79;42.11;93263.91;5051014;28;20226;-77
2022/05/08 07:38:28;;;;;;;10.27;9.53;;;;;;;14.84;43.13;93258.56;5046169;28;20193;-79
2022/05/08 07:40:53;;;;;;;9.03;8.53;;;;;;;14.54;43.84;93253.81;5053031;28;20218;-76
2022/05/08 07:43:19;;;;;;;9.60;8.90;;;;;;;15.10;42.82;93267.56;5054323;28;20186;-76
2022/05/08 07:45:44;;;;;;;9.70;9.10;;;;;;;15.04;43.01;93261.63;5051546;28;20197;-76
2022/05/08 07:48:10;;;;;;;10.30;9.67;;;;;;;15.11;44.37;93237.59;5050393;28;20189;-77
2022/05/08 07:50:35;;;;;;;9.23;8.70;;;;;;;15.46;41.54;93258.00;5051205;28;20186;-77
2022/05/08 07:53:00;;;;;;;10.23;9.53;;;;;;;15.31;42.55;93264.31;5054978;28;20190;-76
2022/05/08 07:55:26;;;;;;;9.57;9.07;;;;;;;15.31;42.67;93240.66;5047288;28;20210;-75
2022/05/08 07:57:51;;;;;;;10.90;10.17;;;;;;;15.22;41.67;93249.50;5053459;28;20232;-76
2022/05/08 08:00:17;;;;;;;10.40;9.70;;;;;;;15.65;41.13;93250.81;5050989;28;20198;-82
2022/05/08 08:02:42;;;;;;;9.57;8.97;;;;;;;15.54;41.79;93241.53;5050925;28;20225;-80
2022/05/08 08:05:09;;;;;;;9.73;9.13;;;;;;;15.71;41.02;93249.63;5051841;28;20273;-74
2022/05/08 08:07:36;;;;;;;10.87;10.07;;;;;;;15.67;41.03;93243.41;5050839;28;20233;-76
2022/05/08 08:10:02;;;;;;;10.63;9.77;;;;;;;15.79;41.00;93262.09;5051304;28;20186;-76
2022/05/08 08:12:28;;;;;;;10.10;9.40;;;;;;;15.73;40.09;93242.22;5062630;28;20220;-77
2022/05/08 08:14:53;;;;;;;10.33;9.73;;;;;;;15.85;39.86;93250.41;5069016;28;20205;-77
2022/05/08 08:17:19;;;;;;;10.93;10.23;;;;;;;15.97;40.92;93237.50;5060260;28;20230;-78
2022/05/08 08:19:44;;;;;;;10.33;9.63;;;;;;;16.15;39.26;93238.44;5065182;28;20485;-79
2022/05/08 08:22:10;;;;;;;10.93;10.10;;;;;;;16.60;38.07;93255.91;5064239;28;20225;-78
2022/05/08 08:24:36;;;;;;;8.63;8.10;;;;;;;16.43;37.95;93251.25;5069703;28;20190;-81
2022/05/08 08:27:02;;;;;;;10.07;9.47;;;;;;;16.25;36.31;93257.44;5051214;28;20261;-80
2022/05/08 08:29:27;;;;;;;8.90;8.40;;;;;;;16.13;38.62;93253.75;5049516;28;20245;-79
2022/05/08 08:31:53;;;;;;;8.83;8.33;;;;;;;16.13;39.51;93245.84;5038382;28;20238;-76
2022/05/08 08:34:18;;;;;;;8.93;8.43;;;;;;;16.60;38.02;93255.91;5051493;28;20233;-78
2022/05/08 08:36:44;;;;;;;9.10;8.60;;;;;;;16.63;37.57;93253.44;5055598;28;20237;-77
2022/05/08 08:39:09;;;;;;;9.50;8.90;;;;;;;16.92;38.41;93255.63;5070360;28;20201;-75
2022/05/08 08:41:36;;;;;;;8.97;8.37;;;;;;;16.67;38.75;93243.84;5071412;28;20221;-75
2022/05/08 08:49:47;;;;;;;10.77;9.73;;;;;;;17.16;37.86;93250.81;5070908;28;20253;-75
2022/05/08 08:52:14;;;;;;;9.40;8.73;;;;;;;17.35;38.51;93238.97;5054928;28;20222;-75
2022/05/08 08:54:39;;;;;;;9.07;8.60;;;;;;;17.58;35.09;93240.50;5054445;28;20220;-75
2022/05/08 08:57:05;;;;;;;9.00;8.60;;;;;;;17.44;35.95;93245.09;5052012;28;20249;-75
2022/05/08 08:59:30;;;;;;;9.13;8.47;;;;;;;17.29;35.82;93236.78;5051056;28;20194;-81
2022/05/08 09:01:55;;;;;;;10.07;9.27;;;;;;;17.49;35.54;93233.63;5051017;28;20225;-76
2022/05/08 09:04:21;;;;;;;9.37;8.67;;;;;;;17.39;35.15;93226.72;5051411;28;20194;-78
2022/05/08 09:06:47;;;;;;;9.33;8.73;;;;;;;17.59;34.91;93239.41;5079445;28;20263;-77
2022/05/08 09:09:26;;;;;;;8.97;8.37;;;;;;;17.33;35.13;93227.94;5062254;28;20196;-75
2022/05/08 09:11:55;;;;;;;9.37;8.87;;;;;;;17.38;36.03;93241.00;5060088;28;20229;-75
2022/05/08 09:14:27;;;;;;;8.80;8.13;;;;;;;17.32;35.33;93236.94;5042325;28;20216;-75
2022/05/08 09:16:56;;;;;;;8.47;8.00;;;;;;;17.54;34.33;93228.97;5055770;28;20234;-75
2022/05/08 09:19:34;;;;;;;8.47;8.07;;;;;;;17.84;34.45;93226.59;5038278;28;20182;-76
2022/05/08 09:22:01;;;;;;;8.73;8.33;;;;;;;18.02;33.28;93228.97;5056563;28;20217;-79
2022/05/08 09:24:26;;;;;;;9.10;8.60;;;;;;;17.96;33.88;93229.41;5051270;28;20270;-76
2022/05/08 09:27:16;;;;;;;8.67;8.27;;;;;;;17.83;32.74;93225.03;5062629;28;20222;-77
2022/05/08 09:29:43;;;;;;;7.80;7.50;;;;;;;18.07;33.19;93231.44;5058723;28;20265;-74
2022/05/08 09:32:09;;;;;;;9.40;8.57;;;;;;;18.00;34.98;93225.84;5067726;28;20256;-73
2022/05/08 09:34:54;;;;;;;9.50;8.80;;;;;;;18.37;33.44;93224.47;5059271;28;20225;-74
2022/05/08 09:37:19;;;;;;;8.27;7.87;;;;;;;18.61;31.98;93222.97;5064457;28;20224;-74
2022/05/08 09:39:45;;;;;;;9.03;8.53;;;;;;;18.64;32.90;93205.69;5057083;28;20208;-74
2022/05/08 09:42:38;;;;;;;8.40;8.00;;;;;;;18.64;31.13;93213.63;5071298;28;20222;-74
2022/05/08 09:45:08;;;;;;;8.93;8.53;;;;;;;18.49;32.28;93214.09;5064361;28;20219;-74
2022/05/08 09:47:44;;;;;;;9.00;8.50;;;;;;;18.55;32.56;93197.75;5057013;28;20229;-74
2022/05/08 09:50:12;;;;;;;9.43;8.70;;;;;;;18.74;33.22;93210.66;5038452;28;20227;-82
2022/05/08 09:52:41;;;;;;;8.37;7.97;;;;;;;18.75;30.83;93193.69;5053247;28;20225;-74
2022/05/08 09:55:14;;;;;;;8.60;8.20;;;;;;;18.42;32.02;93182.03;5035538;28;20202;-74
2022/05/08 09:57:40;;;;;;;9.67;8.70;;;;;;;18.19;33.06;93199.13;5067032;28;20292;-73
2022/05/08 10:00:08;;;;;;;9.17;8.63;;;;;;;18.41;34.30;93199.00;5069317;28;20190;-73
2022/05/08 10:02:39;;;;;;;8.20;7.70;;;;;;;18.67;33.15;93194.47;5064137;28;20231;-74
2022/05/08 10:05:05;;;;;;;8.43;8.03;;;;;;;18.85;32.38;93191.47;5081176;28;20194;-78
2022/05/08 10:07:32;;;;;;;8.67;8.17;;;;;;;18.90;31.79;93179.94;5064663;28;20311;-75
2022/05/08 10:15:30;;;;;;;8.03;7.63;;;;;;;18.82;31.30;93197.41;5064873;28;20250;-74
2022/05/08 10:18:31;;;;;;;8.47;8.07;;;;;;;18.92;33.04;93183.06;5051804;28;20235;-78
2022/05/08 10:21:12;;;;;;;8.40;8.00;;;;;;;19.24;33.02;93181.72;5051489;28;20257;-77
2022/05/08 10:23:41;;;;;;;9.57;8.53;;;;;;;19.28;31.66;93180.81;5052839;28;20272;-76
2022/05/08 10:26:21;;;;;;;8.83;8.27;;;;;;;19.38;31.99;93180.44;5054077;28;20245;-75
2022/05/08 10:29:02;;;;;;;8.50;8.10;;;;;;;19.32;32.41;93173.78;5068711;28;20190;-78
2022/05/08 10:31:48;;;;;;;8.47;8.07;;;;;;;19.57;31.00;93166.78;5071531;28;20245;-80
2022/05/08 10:34:15;;;;;;;9.43;8.83;;;;;;;19.36;29.47;93171.28;5066527;28;20217;-81
2022/05/08 10:37:21;;;;;;;8.53;8.13;;;;;;;19.55;31.64;93161.81;5059556;28;20239;-78
2022/05/08 10:39:47;;;;;;;8.97;8.47;;;;;;;19.67;30.37;93166.44;5034730;28;20210;-79
2022/05/08 10:42:22;;;;;;;8.67;8.27;;;;;;;19.84;29.86;93161.81;5046319;28;20270;-78
2022/05/08 10:44:47;;;;;;;7.63;7.23;;;;;;;19.71;30.70;93157.53;5048879;28;20195;-78
2022/05/08 10:47:36;;;;;;;8.30;7.80;;;;;;;19.81;29.42;93165.13;5055277;28;20290;-79
2022/05/08 10:50:09;;;;;;;8.00;7.60;;;;;;;19.96;28.93;93161.09;5068770;28;20228;-80
2022/05/08 10:52:43;;;;;;;8.33;7.93;;;;;;;19.85;29.00;93160.72;5078673;28;20229;-75
2022/05/08 10:55:17;;;;;;;9.07;8.57;;;;;;;19.89;29.65;93164.25;5069831;28;20206;-75
2022/05/08 10:57:48;;;;;;;8.83;8.33;;;;;;;19.61;29.05;93147.28;5065439;28;20219;-76
2022/05/08 11:00:18;;;;;;;9.10;8.60;;;;;;;19.86;29.47;93151.66;5063157;28;20248;-76
2022/05/08 11:02:51;;;;;;;8.57;8.03;;;;;;;19.94;28.45;93155.34;5049684;28;20228;-77
2022/05/08 11:05:18;;;;;;;8.63;8.23;;;;;;;19.84;29.73;93153.88;5057243;28;20206;-76
2022/05/08 11:07:51;;;;;;;10.10;9.30;;;;;;;20.07;29.88;93154.34;5038512;28;20721;-76
2022/05/08 11:10:18;;;;;;;8.37;7.97;;;;;;;20.06;28.50;93148.25;5036962;28;20189;-76
2022/05/08 11:13:00;;;;;;;9.07;8.50;;;;;;;20.19;29.59;93151.75;5057112;28;20318;-76
2022/05/08 11:15:37;;;;;;;8.90;8.30;;;;;;;20.31;29.68;93136.69;5062410;28;20740;-76
2022/05/08 11:18:02;;;;;;;8.07;7.67;;;;;;;20.40;28.71;93153.34;5069069;28;20211;-76
2022/05/08 11:20:28;;;;;;;7.70;7.30;;;;;;;20.37;29.16;93145.25;5064010;28;20203;-76
2022/05/08 11:22:56;;;;;;;8.57;8.07;;;;;;;20.32;29.63;93140.13;5065243;28;20230;-76
2022/05/08 11:25:22;;;;;;;9.00;8.43;;;;;;;20.35;30.39;93129.66;5066902;28;20256;-77
2022/05/08 11:27:55;;;;;;;8.43;7.83;;;;;;;20.53;29.29;93136.34;5067969;28;20231;-76
2022/05/08 11:30:26;;;;;;;8.35;7.85;;;;;;;20.56;30.16;93130.38;5063716;28;20853;-76
2022/05/08 11:38:22;;;;;;;7.70;7.30;;;;;;;20.45;28.92;93123.19;5066867;28;20257;-86
2022/05/08 11:40:48;;;;;;;8.47;8.03;;;;;;;20.43;28.56;93110.22;5066670;28;20204;-92
2022/05/08 11:43:37;;;;;;;7.38;6.88;;;;;;;20.76;29.10;93128.00;5077061;28;20176;-91
2022/05/08 11:46:03;;;;;;;8.03;7.50;;;;;;;20.66;27.88;93119.38;5071395;28;20249;-90
2022/05/08 11:48:42;;;;;;;8.80;8.20;;;;;;;20.71;27.49;93118.38;5072617;28;20279;-88
2022/05/08 11:51:09;;;;;;;8.17;7.77;;;;;;;20.37;26.08;93116.81;5072186;28;20239;-91
2022/05/08 11:53:47;;;;;;;8.10;7.65;;;;;;;20.73;27.10;93122.25;5070595;28;20219;-87
2022/05/08 11:56:27;;;;;;;7.80;7.40;;;;;;;20.69;26.23;93116.06;5085133;28;20227;-87
2022/05/08 11:58:58;;;;;;;8.68;8.18;;;;;;;20.81;25.37;93109.22;5073795;28;20186;-85
2022/05/08 12:01:35;;;;;;;7.57;7.03;;;;;;;20.69;24.64;93102.78;5071158;28;20221;-85
2022/05/08 12:04:24;;;;;;;7.63;7.23;;;;;;;20.75;24.63;93107.91;5070284;28;20214;-85